Skip Navigation LinksHome page > Weather > Current weather Skip Navigation Links

Current Weather

San Francisco International, San Francisco

For information only: do not use for flight planning or navigation.
Latest weather
Observation time Friday, December 19, 2014 4:45 AM PST
Local time Friday, December 19, 2014 4:57 AM PST
Flight conditions Marginal Visual Meteorological Conditions
Winds
Wind direction Southeast (140°)
Wind speed 6 mph
Visibility 9 mi.
Present weather light rain
Sky condition
Ceiling 1,900 ft. broken clouds
Cloud layer few clouds 1,400 ft.
Cloud layer broken clouds 1,900 ft.
Cloud layer overcast 3,600 ft.
Temperature 55°F
Dewpoint 54°F
Altimeter 30.13 in.Hg
Derived measurements
Relative humidity 94%
Density altitude -267 ft.
Remarks
Special weather observation.
METAR SPUS81 KWBC 191249 SPECI KSFO 191245Z 14005KT 9SM -RA FEW014 BKN019 OVC036 13/12 A3013

Settings

Location code

InnerDrive.Weather 4.0.5399.0 Release CLR 4.0.30319.34014
Copyright ©2014 Inner Drive Technology. All rights reserved. Portions Copyright ©1986-2014 David Braverman.

Find weather

Site navigation


Skip Navigation Links

Place info

Page info

PayPal - The safer, easier way to pay online!

Return home.

Copyright ©2014 Inner Drive Technology. Purveyors of fine, hand-crafted computer software. Page printed 2014-12-19T12:57:50 UTC.